createdAt,value
2022-08-08T00:02:03.241Z,1.40
2022-08-08T00:04:19.329Z,1.40
2022-08-08T00:06:58.565Z,1.98
2022-08-08T00:09:53.590Z,1.67
2022-08-08T00:12:23.810Z,1.48
2022-08-08T00:15:13.101Z,1.50
2022-08-08T00:18:17.082Z,1.73
2022-08-08T00:20:50.605Z,1.45
2022-08-08T00:23:43.069Z,1.55
2022-08-08T00:26:29.381Z,1.35
2022-08-08T00:29:42.258Z,1.38
2022-08-08T00:32:36.956Z,1.30
2022-08-08T00:35:22.934Z,1.42
2022-08-08T00:38:02.925Z,1.45
2022-08-08T00:41:06.742Z,1.70
2022-08-08T00:43:40.952Z,1.52
2022-08-08T00:46:16.421Z,1.52
2022-08-08T00:49:01.169Z,1.50
2022-08-08T00:51:38.410Z,1.50
2022-08-08T00:54:18.859Z,1.58
2022-08-08T00:56:57.803Z,1.63
2022-08-08T00:59:46.464Z,1.48
2022-08-08T01:03:57.271Z,1.77
2022-08-08T01:05:29.156Z,1.48
2022-08-08T01:08:10.468Z,1.30
2022-08-08T01:10:42.043Z,1.42
2022-08-08T01:13:43.983Z,1.55
2022-08-08T01:16:20.406Z,1.50
2022-08-08T01:19:13.909Z,1.58
2022-08-08T01:22:13.537Z,1.50
2022-08-08T01:24:43.562Z,1.58
2022-08-08T01:27:21.216Z,1.67
2022-08-08T01:30:03.770Z,1.60
2022-08-08T01:32:51.873Z,1.38
2022-08-08T01:35:29.604Z,1.65
2022-08-08T01:38:09.934Z,1.65
2022-08-08T01:40:49.311Z,1.77
2022-08-08T01:43:22.644Z,1.48
2022-08-08T01:45:59.616Z,1.60
2022-08-08T01:48:36.091Z,1.67
2022-08-08T01:51:31.625Z,1.52
2022-08-08T01:55:27.165Z,1.55
2022-08-08T01:57:17.343Z,1.67
2022-08-08T02:00:01.866Z,1.80
2022-08-08T02:05:16.741Z,1.60
2022-08-08T02:07:50.048Z,1.88
2022-08-08T02:10:45.094Z,1.95
2022-08-08T02:13:15.837Z,1.42
2022-08-08T02:16:06.361Z,1.33
2022-08-08T02:18:33.661Z,1.52
2022-08-08T02:21:28.541Z,1.40
2022-08-08T02:24:03.485Z,1.63
2022-08-08T02:26:34.847Z,1.33
2022-08-08T02:29:21.886Z,2.15
2022-08-08T02:32:04.869Z,1.75
2022-08-08T02:35:08.107Z,1.55
2022-08-08T02:38:05.705Z,1.70
2022-08-08T02:41:07.730Z,1.40
2022-08-08T02:44:42.734Z,1.55
2022-08-08T02:46:44.915Z,1.50
2022-08-08T02:49:48.300Z,1.50
2022-08-08T02:52:35.020Z,1.30
2022-08-08T02:55:20.693Z,1.38
2022-08-08T02:57:51.359Z,1.30
2022-08-08T03:00:40.006Z,1.73
2022-08-08T03:03:14.464Z,1.42
2022-08-08T03:05:46.455Z,1.52
2022-08-08T03:08:32.675Z,1.60
2022-08-08T03:11:25.635Z,2.20
2022-08-08T03:15:59.222Z,1.40
2022-08-08T03:17:20.044Z,1.50
2022-08-08T03:20:03.583Z,1.58
2022-08-08T03:22:38.286Z,1.70
2022-08-08T03:25:17.797Z,1.58
2022-08-08T03:27:49.319Z,1.65
2022-08-08T03:30:24.469Z,1.50
2022-08-08T03:33:56.085Z,1.50
2022-08-08T03:35:59.154Z,1.65
2022-08-08T03:38:56.646Z,1.40
2022-08-08T03:42:11.420Z,1.65
2022-08-08T03:44:01.311Z,1.58
2022-08-08T03:46:32.727Z,1.60
2022-08-08T03:49:30.189Z,1.73
2022-08-08T03:51:55.739Z,1.55
2022-08-08T03:54:41.827Z,1.80
2022-08-08T03:58:30.839Z,1.50
2022-08-08T04:00:11.051Z,1.55
2022-08-08T04:02:47.828Z,1.27
2022-08-08T04:05:28.010Z,1.70
2022-08-08T04:07:56.643Z,1.75
2022-08-08T04:10:25.667Z,2.00
2022-08-08T04:13:00.043Z,1.60
2022-08-08T04:15:38.326Z,1.90
2022-08-08T04:18:06.731Z,1.60
2022-08-08T04:20:43.728Z,1.55
2022-08-08T04:23:12.913Z,1.70
2022-08-08T04:25:43.111Z,1.90
2022-08-08T04:28:36.452Z,1.73
2022-08-08T04:30:57.782Z,1.50
2022-08-08T04:33:26.965Z,1.90
2022-08-08T04:35:56.168Z,1.55
2022-08-08T04:38:23.496Z,2.05
2022-08-08T04:40:54.036Z,1.73
2022-08-08T04:43:22.300Z,1.70
2022-08-08T04:45:58.779Z,2.13
2022-08-08T04:48:26.173Z,1.73
2022-08-08T04:50:53.723Z,1.60
2022-08-08T04:54:37.056Z,2.38
2022-08-08T04:56:08.513Z,1.50
2022-08-08T04:58:35.867Z,1.60
2022-08-08T05:01:09.069Z,1.88
2022-08-08T05:04:09.709Z,1.33
2022-08-08T05:06:28.972Z,1.50
2022-08-08T05:09:02.808Z,1.42
2022-08-08T05:11:38.935Z,1.60
2022-08-08T05:14:07.249Z,1.60
2022-08-08T05:16:55.601Z,1.90
2022-08-08T05:20:11.294Z,1.60
2022-08-08T05:22:10.123Z,2.22
2022-08-08T05:24:38.385Z,1.50
2022-08-08T05:27:06.429Z,1.70
2022-08-08T05:29:35.722Z,1.60
2022-08-08T05:32:06.439Z,1.95
2022-08-08T05:34:34.872Z,1.85
2022-08-08T05:37:15.800Z,1.40
2022-08-08T05:39:52.865Z,1.70
2022-08-08T05:42:25.848Z,1.80
2022-08-08T05:44:54.105Z,1.30
2022-08-08T05:47:24.975Z,1.60
2022-08-08T05:50:09.891Z,1.50
2022-08-08T05:52:38.714Z,1.30
2022-08-08T05:55:15.749Z,1.60
2022-08-08T05:58:04.841Z,1.30
2022-08-08T06:00:58.436Z,1.50
2022-08-08T06:03:31.827Z,1.88
2022-08-08T06:06:11.371Z,1.48
2022-08-08T06:09:00.250Z,1.20
2022-08-08T06:11:46.726Z,1.65
2022-08-08T06:14:19.648Z,1.80
2022-08-08T06:16:53.904Z,2.25
2022-08-08T06:19:27.514Z,1.63
2022-08-08T06:22:32.170Z,1.40
2022-08-08T06:24:55.251Z,1.42
2022-08-08T06:27:38.822Z,1.50
2022-08-08T06:30:20.416Z,1.20
2022-08-08T06:33:09.346Z,1.45
2022-08-08T06:36:06.512Z,1.20
2022-08-08T06:38:43.350Z,1.10
2022-08-08T06:41:15.728Z,1.45
2022-08-08T06:43:57.261Z,1.50
2022-08-08T06:46:32.580Z,1.60
2022-08-08T06:49:03.623Z,1.40
2022-08-08T06:51:48.874Z,1.30
2022-08-08T06:54:24.053Z,1.58
2022-08-08T06:56:56.880Z,2.53
2022-08-08T06:59:49.118Z,1.50
2022-08-08T07:02:32.250Z,1.65
2022-08-08T07:05:20.545Z,1.10
2022-08-08T07:08:20.361Z,1.50
2022-08-08T07:11:01.874Z,1.20
2022-08-08T07:13:39.550Z,2.05
2022-08-08T07:16:50.098Z,1.80
2022-08-08T07:19:35.128Z,1.90
2022-08-08T07:22:12.198Z,2.30
2022-08-08T07:25:06.853Z,1.70
2022-08-08T07:28:01.737Z,2.10
2022-08-08T07:30:27.245Z,1.73
2022-08-08T07:32:59.408Z,1.90
2022-08-08T07:35:30.946Z,1.63
2022-08-08T07:38:09.637Z,1.88
2022-08-08T07:40:47.270Z,1.65
2022-08-08T07:43:15.064Z,1.38
2022-08-08T07:46:05.714Z,1.58
2022-08-08T07:48:31.153Z,1.70
2022-08-08T07:51:01.349Z,1.33
2022-08-08T07:54:00.871Z,1.30
2022-08-08T07:56:36.813Z,1.50
2022-08-08T07:59:08.754Z,1.55
2022-08-08T08:02:35.905Z,1.55
2022-08-08T08:04:30.785Z,1.27
2022-08-08T08:07:00.743Z,1.50
2022-08-08T08:09:35.754Z,1.27
2022-08-08T08:12:03.744Z,1.75
2022-08-08T08:14:47.136Z,1.70
2022-08-08T08:17:19.067Z,1.50
2022-08-08T08:19:55.694Z,1.98
2022-08-08T08:22:25.370Z,1.67
2022-08-08T08:24:58.952Z,1.20
2022-08-08T08:27:35.350Z,1.50
2022-08-08T08:30:02.917Z,1.80
2022-08-08T08:32:36.642Z,1.60
2022-08-08T08:35:08.584Z,2.20
2022-08-08T08:38:05.546Z,1.80
2022-08-08T08:40:24.743Z,1.73
2022-08-08T08:42:53.279Z,1.73
2022-08-08T08:45:23.495Z,1.48
2022-08-08T08:47:54.756Z,1.40
2022-08-08T08:50:33.337Z,1.58
2022-08-08T08:53:27.652Z,1.52
2022-08-08T08:56:01.871Z,1.35
2022-08-08T08:58:29.744Z,1.20
2022-08-08T09:01:09.260Z,1.00
2022-08-08T09:03:46.752Z,1.30
2022-08-08T09:06:26.602Z,1.13
2022-08-08T09:09:03.089Z,1.20
2022-08-08T09:11:33.996Z,1.15
2022-08-08T09:14:02.046Z,1.00
2022-08-08T09:16:32.822Z,1.67
2022-08-08T09:19:00.515Z,1.05
2022-08-08T09:22:01.322Z,1.00
2022-08-08T09:24:17.750Z,1.02
2022-08-08T09:26:51.536Z,0.98
2022-08-08T09:29:25.797Z,1.10
2022-08-08T09:31:56.594Z,1.02
2022-08-08T09:34:32.783Z,1.05
2022-08-08T09:37:28.726Z,1.23
2022-08-08T09:40:10.742Z,1.38
2022-08-08T09:42:44.047Z,1.00
2022-08-08T09:45:54.158Z,0.85
2022-08-08T09:48:17.894Z,1.00
2022-08-08T09:50:51.294Z,1.33
2022-08-08T09:53:32.890Z,0.80
2022-08-08T09:56:12.568Z,1.10
2022-08-08T09:59:14.983Z,1.15
2022-08-08T10:01:59.831Z,1.15
2022-08-08T10:04:47.328Z,1.20
2022-08-08T10:07:16.475Z,1.30
2022-08-08T10:09:59.557Z,1.10
2022-08-08T10:12:53.261Z,1.17
2022-08-08T10:15:22.419Z,0.90
2022-08-08T10:18:06.161Z,1.30
2022-08-08T10:20:57.591Z,0.90
2022-08-08T10:23:43.337Z,1.10
2022-08-08T10:26:56.877Z,1.17
2022-08-08T10:29:23.703Z,1.20
2022-08-08T10:32:17.037Z,0.80
2022-08-08T10:34:57.046Z,0.98
2022-08-08T10:37:30.372Z,0.82
2022-08-08T10:39:58.793Z,1.10
2022-08-08T10:42:34.503Z,0.90
2022-08-08T10:45:08.009Z,0.93
2022-08-08T10:50:15.843Z,1.10
2022-08-08T10:52:43.409Z,1.05
2022-08-08T10:55:15.658Z,1.10
2022-08-08T10:58:05.921Z,1.00
2022-08-08T11:00:39.199Z,0.98
2022-08-08T11:03:16.955Z,1.05
2022-08-08T11:05:51.844Z,0.85
2022-08-08T11:08:37.377Z,1.02
2022-08-08T11:11:07.888Z,1.00
2022-08-08T11:13:40.107Z,0.90
2022-08-08T11:16:32.339Z,1.02
2022-08-08T11:19:01.436Z,1.10
2022-08-08T11:21:34.839Z,1.10
2022-08-08T11:24:06.967Z,1.00
2022-08-08T11:26:38.436Z,0.82
2022-08-08T11:29:42.010Z,1.10
2022-08-08T11:32:14.332Z,1.08
2022-08-08T11:35:10.544Z,1.00
2022-08-08T11:38:39.113Z,1.15
2022-08-08T11:40:22.407Z,1.13
2022-08-08T11:42:53.177Z,1.10
2022-08-08T11:45:22.620Z,1.17
2022-08-08T11:48:02.810Z,0.70
2022-08-08T11:50:33.792Z,1.10
2022-08-08T12:01:12.287Z,1.08
2022-08-08T12:03:46.663Z,1.20
2022-08-08T12:06:18.431Z,1.05
2022-08-08T12:08:46.763Z,1.33
2022-08-08T12:11:26.918Z,1.35
2022-08-08T12:14:04.985Z,0.85
2022-08-08T12:16:46.487Z,1.00
2022-08-08T12:19:21.896Z,1.02
2022-08-08T12:22:12.763Z,1.20
2022-08-08T12:27:26.935Z,1.35
2022-08-08T12:30:01.817Z,1.00
2022-08-08T12:32:33.195Z,0.90
2022-08-08T12:35:04.879Z,0.90
2022-08-08T12:37:48.089Z,1.10
2022-08-08T12:40:56.360Z,0.90
2022-08-08T12:43:32.777Z,1.08
2022-08-08T12:46:19.436Z,0.90
2022-08-08T12:49:22.006Z,0.90
2022-08-08T12:51:49.995Z,1.10
2022-08-08T12:54:27.556Z,0.90
2022-08-08T12:56:56.035Z,0.90
2022-08-08T12:59:36.613Z,1.30
2022-08-08T13:02:21.706Z,1.17
2022-08-08T13:04:56.707Z,0.90
2022-08-08T13:08:03.873Z,1.48
2022-08-08T13:10:55.434Z,0.82
2022-08-08T13:13:37.117Z,1.40
2022-08-08T13:16:18.684Z,1.20
2022-08-08T13:18:57.044Z,1.30
2022-08-08T13:21:48.851Z,1.38
2022-08-08T13:24:19.025Z,1.02
2022-08-08T13:27:11.791Z,1.30
2022-08-08T13:29:50.777Z,1.35
2022-08-08T13:32:20.742Z,1.30
2022-08-08T13:34:52.768Z,1.20
2022-08-08T13:37:27.970Z,1.55
2022-08-08T13:40:08.379Z,0.95
2022-08-08T13:42:36.235Z,1.50
2022-08-08T13:45:04.562Z,1.20
2022-08-08T13:47:32.039Z,1.27
2022-08-08T13:50:37.261Z,1.30
2022-08-08T13:52:48.612Z,1.20
2022-08-08T13:55:29.438Z,1.63
2022-08-08T13:58:08.816Z,1.10
2022-08-08T14:00:45.516Z,1.15
2022-08-08T14:03:52.383Z,1.10
2022-08-08T14:06:32.511Z,1.30
2022-08-08T14:08:58.232Z,1.02
2022-08-08T14:11:29.717Z,1.23
2022-08-08T14:14:00.311Z,1.10
2022-08-08T14:16:29.048Z,1.17
2022-08-08T14:19:02.803Z,1.83
2022-08-08T14:21:48.855Z,1.42
2022-08-08T14:24:32.421Z,1.27
2022-08-08T14:26:59.810Z,1.30
2022-08-08T14:29:30.622Z,1.10
2022-08-08T14:32:11.040Z,1.38
2022-08-08T14:34:42.693Z,1.30
2022-08-08T14:37:13.102Z,1.25
2022-08-08T14:40:05.902Z,1.00
2022-08-08T14:42:47.326Z,1.30
2022-08-08T14:45:33.325Z,1.40
2022-08-08T14:48:12.543Z,1.65
2022-08-08T14:50:43.944Z,1.35
2022-08-08T14:53:15.337Z,1.05
2022-08-08T14:55:43.566Z,1.17
2022-08-08T14:58:16.737Z,1.17
2022-08-08T15:00:49.921Z,1.27
2022-08-08T15:03:18.601Z,1.10
2022-08-08T15:05:54.185Z,1.10
2022-08-08T15:08:34.538Z,1.17
2022-08-08T15:11:06.549Z,1.10
2022-08-08T15:13:39.987Z,1.30
2022-08-08T15:16:21.663Z,1.20
2022-08-08T15:18:51.508Z,1.40
2022-08-08T15:21:20.585Z,1.30
2022-08-08T15:23:51.140Z,1.27
2022-08-08T15:26:20.296Z,1.10
2022-08-08T15:28:53.008Z,1.00
2022-08-08T15:31:25.718Z,1.13
2022-08-08T15:34:29.300Z,1.20
2022-08-08T15:37:02.409Z,1.00
2022-08-08T15:39:38.070Z,1.33
2022-08-08T15:42:13.394Z,1.33
2022-08-08T15:44:51.629Z,1.38
2022-08-08T15:47:22.541Z,1.60
2022-08-08T15:49:50.344Z,1.23
2022-08-08T15:52:20.661Z,1.10
2022-08-08T15:54:51.704Z,1.20
2022-08-08T15:57:20.171Z,1.08
2022-08-08T16:00:25.256Z,1.23
2022-08-08T16:02:35.969Z,1.20
2022-08-08T16:05:09.431Z,1.10
2022-08-08T16:07:51.693Z,1.23
2022-08-08T16:13:10.361Z,1.10
2022-08-08T16:13:29.928Z,1.20
2022-08-08T16:15:58.796Z,1.20
2022-08-08T16:18:28.464Z,1.60
2022-08-08T16:21:00.724Z,2.08
2022-08-08T16:23:32.203Z,1.40
2022-08-08T16:26:04.086Z,1.67
2022-08-08T16:28:35.173Z,1.15
2022-08-08T16:31:06.296Z,1.30
2022-08-08T16:33:38.240Z,1.48
2022-08-08T16:36:08.816Z,1.25
2022-08-08T16:38:40.560Z,1.30
2022-08-08T16:41:20.136Z,1.10
2022-08-08T16:43:50.756Z,1.23
2022-08-08T16:46:39.305Z,1.20
2022-08-08T16:49:07.793Z,1.20
2022-08-08T16:55:00.738Z,1.00
2022-08-08T16:55:02.067Z,1.10
2022-08-08T16:57:23.589Z,1.70
2022-08-08T17:00:06.139Z,1.38
2022-08-08T17:02:38.238Z,1.50
2022-08-08T17:05:06.852Z,1.70
2022-08-08T17:07:37.438Z,1.13
2022-08-08T17:10:06.803Z,1.40
2022-08-08T17:12:36.758Z,1.30
2022-08-08T17:15:17.745Z,1.30
2022-08-08T17:18:01.561Z,6.78
2022-08-08T17:20:32.022Z,1.02
2022-08-08T17:23:18.029Z,1.60
2022-08-08T17:25:52.314Z,1.25
2022-08-08T17:28:35.357Z,1.17
2022-08-08T17:31:45.067Z,1.38
2022-08-08T17:34:36.772Z,1.20
2022-08-08T17:37:00.265Z,1.40
2022-08-08T17:40:02.924Z,1.15
2022-08-08T17:42:18.545Z,1.10
2022-08-08T17:44:49.722Z,1.30
2022-08-08T17:47:24.198Z,1.45
2022-08-08T17:50:01.369Z,1.60
2022-08-08T17:52:30.775Z,1.52
2022-08-08T17:54:58.385Z,1.42
2022-08-08T17:57:28.894Z,1.30
2022-08-08T18:00:03.307Z,1.80
2022-08-08T18:02:30.828Z,1.67
2022-08-08T18:04:58.888Z,1.60
2022-08-08T18:08:02.978Z,1.63
2022-08-08T18:10:15.765Z,1.63
2022-08-08T18:12:46.106Z,1.40
2022-08-08T18:15:14.519Z,1.77
2022-08-08T18:18:05.130Z,1.70
2022-08-08T18:20:43.629Z,1.40
2022-08-08T18:23:16.824Z,1.70
2022-08-08T18:25:47.093Z,2.08
2022-08-08T18:28:14.685Z,1.58
2022-08-08T18:30:50.846Z,1.60
2022-08-08T18:33:36.962Z,1.80
2022-08-08T18:36:10.201Z,1.98
2022-08-08T18:38:49.096Z,1.50
2022-08-08T18:41:16.695Z,1.50
2022-08-08T18:43:46.582Z,1.73
2022-08-08T18:46:55.017Z,5.45
2022-08-08T18:49:03.934Z,11.05
2022-08-08T18:51:53.394Z,4.47
2022-08-08T18:54:30.034Z,4.50
2022-08-08T18:56:58.407Z,2.28
2022-08-08T18:59:28.981Z,1.92
2022-08-08T19:02:25.083Z,2.10
2022-08-08T19:04:52.120Z,2.13
2022-08-08T19:07:23.175Z,3.55
2022-08-08T19:10:14.289Z,2.20
2022-08-08T19:12:44.481Z,6.55
2022-08-08T19:15:23.711Z,3.45
2022-08-08T19:18:33.167Z,2.05
2022-08-08T19:20:43.026Z,2.45
2022-08-08T19:23:14.011Z,2.90
2022-08-08T19:26:26.916Z,1.80
2022-08-08T19:28:31.373Z,3.70
2022-08-08T19:31:04.210Z,3.53
2022-08-08T19:33:52.313Z,4.65
2022-08-08T19:36:27.721Z,5.75
2022-08-08T19:38:55.773Z,5.22
2022-08-08T19:41:27.304Z,5.55
2022-08-08T19:44:04.080Z,3.95
2022-08-08T19:46:39.823Z,2.88
2022-08-08T19:49:07.859Z,2.55
2022-08-08T19:51:41.549Z,2.00
2022-08-08T19:54:11.935Z,2.03
2022-08-08T19:56:41.634Z,2.17
2022-08-08T19:59:22.349Z,2.05
2022-08-08T20:02:02.615Z,1.95
2022-08-08T20:04:31.695Z,1.80
2022-08-08T20:07:03.548Z,1.73
2022-08-08T20:09:56.359Z,1.85
2022-08-08T20:12:32.464Z,2.65
2022-08-08T20:15:14.530Z,1.95
2022-08-08T20:17:45.751Z,1.63
2022-08-08T20:20:19.021Z,1.95
2022-08-08T20:22:52.712Z,2.15
2022-08-08T20:25:24.681Z,2.25
2022-08-08T20:27:54.417Z,2.03
2022-08-08T20:30:52.357Z,2.60
2022-08-08T20:33:19.804Z,2.47
2022-08-08T20:35:58.730Z,2.33
2022-08-08T20:38:32.877Z,2.60
2022-08-08T20:41:01.065Z,2.70
2022-08-08T20:43:44.291Z,2.50
2022-08-08T20:46:16.029Z,2.85
2022-08-08T20:48:45.008Z,2.50
2022-08-08T20:51:14.467Z,2.92
2022-08-08T20:53:59.113Z,2.42
2022-08-08T20:56:35.633Z,2.75
2022-08-08T20:59:05.971Z,3.00
2022-08-08T21:02:05.325Z,2.85
2022-08-08T21:04:21.295Z,2.80
2022-08-08T21:06:52.548Z,2.90
2022-08-08T21:09:21.634Z,2.85
2022-08-08T21:11:50.354Z,2.47
2022-08-08T21:14:30.286Z,2.50
2022-08-08T21:17:01.344Z,2.85
2022-08-08T21:19:34.009Z,2.45
2022-08-08T21:22:14.258Z,2.88
2022-08-08T21:24:52.484Z,2.78
2022-08-08T21:27:38.899Z,2.30
2022-08-08T21:30:19.300Z,3.28
2022-08-08T21:32:52.324Z,2.70
2022-08-08T21:36:16.497Z,2.88
2022-08-08T21:38:16.879Z,2.70
2022-08-08T21:40:55.800Z,2.80
2022-08-08T21:43:24.085Z,3.03
2022-08-08T21:48:20.365Z,2.67
2022-08-08T21:48:41.699Z,2.72
2022-08-08T21:51:13.307Z,2.80
2022-08-08T21:54:33.836Z,2.83
2022-08-08T21:56:36.077Z,3.03
2022-08-08T21:59:10.076Z,3.00
2022-08-08T22:01:40.637Z,3.00
2022-08-08T22:04:11.071Z,3.15
2022-08-08T22:06:39.541Z,3.55
2022-08-08T22:09:08.539Z,2.88
2022-08-08T22:11:52.876Z,2.85
2022-08-08T22:14:26.540Z,2.92
2022-08-08T22:16:54.698Z,2.83
2022-08-08T22:19:24.091Z,3.13
2022-08-08T22:21:52.838Z,2.65
2022-08-08T22:24:28.245Z,2.83
2022-08-08T22:27:02.406Z,2.95
2022-08-08T22:29:58.945Z,3.08
2022-08-08T22:32:19.240Z,3.10
2022-08-08T22:34:50.511Z,2.60
2022-08-08T22:37:49.094Z,3.10
2022-08-08T22:40:16.591Z,2.80
2022-08-08T22:42:45.578Z,3.17
2022-08-08T22:45:15.519Z,2.85
2022-08-08T22:47:46.965Z,2.65
2022-08-08T22:50:26.322Z,2.70
2022-08-08T22:54:28.095Z,3.08
2022-08-08T22:55:58.134Z,2.97
2022-08-08T22:58:29.118Z,2.63
2022-08-08T23:00:59.940Z,3.10
2022-08-08T23:03:34.383Z,2.70
2022-08-08T23:06:16.124Z,2.53
2022-08-08T23:08:44.415Z,2.80
2022-08-08T23:11:22.241Z,3.28
2022-08-08T23:13:53.413Z,2.90
2022-08-08T23:16:41.851Z,3.03
2022-08-08T23:19:11.908Z,2.92
2022-08-08T23:21:39.286Z,3.17
2022-08-08T23:24:07.100Z,2.97
2022-08-08T23:26:34.826Z,3.08
2022-08-08T23:29:02.608Z,2.80
2022-08-08T23:31:30.130Z,2.95
2022-08-08T23:34:17.596Z,2.88
2022-08-08T23:36:46.639Z,3.10
2022-08-08T23:39:14.253Z,3.10
2022-08-08T23:41:46.770Z,2.75
2022-08-08T23:44:18.642Z,2.60
2022-08-08T23:49:01.628Z,2.80
2022-08-08T23:49:34.248Z,2.72
2022-08-08T23:52:05.840Z,2.88
2022-08-08T23:54:53.096Z,2.83
2022-08-08T23:57:27.174Z,2.58
